H. Lee White — WZD2465 — position and weather

sailwx.info

Track history (hours):
 
Tides and Currents Weather Stations Pressure Air Temp Water Temp Dewpoint Dewpoint Depression Visibility Wind Speed Wind Dir Waves Ship Positions

H. Lee White

Owner: AMERICAN STEAMSHIP COMPANY, WILLIAMSVILLE, NY. More information available from US FCC via Universal Licensing System and Coast Guard Vessel Documentation Center.

Last reported at 2015-May-04 01:07 UTC. Time now 2015-May-05 19:19 UTC.
Position N 45°53' W 083°50'.

Length 214 m; draft 6.4 m.

Type: Cargo ship. MMSI: 366938770.

Date/timePositionNaut miles runAvg speedWind from/ knotsBaromVisibWave heightAir tempDewpointWater temp
2015-May-04 01:07N 45°53' W 083°50'16 9.9
2015-May-03 23:31N 46°07' W 084°01'  
2015-May-01 18:21N 47°01' W 091°33'1012.5
2015-May-01 17:33N 46°55' W 091°44'1312.6
2015-May-01 16:33N 46°49' W 092°01'6 6.0
2015-May-01 15:33N 46°45' W 092°07'0 0.0
2015-May-01 14:33N 46°45' W 092°07'0 0.0
2015-May-01 13:33N 46°45' W 092°07'1 0.2
2015-May-01 09:03N 46°44' W 092°05'0 0.0
2015-May-01 08:34N 46°44' W 092°05'0 0.0
2015-May-01 07:33N 46°44' W 092°05'0 0.0
2015-May-01 06:33N 46°44' W 092°05'0 0.0
2015-May-01 05:33N 46°44' W 092°05'0 0.0
2015-May-01 04:33N 46°44' W 092°05'0 0.0
2015-May-01 03:32N 46°44' W 092°05'0 0.0
2015-May-01 02:33N 46°44' W 092°05'0 0.0
2015-May-01 01:33N 46°44' W 092°05'0 0.0
2015-May-01 00:33N 46°44' W 092°05'0 0.0
2015-Apr-30 23:33N 46°44' W 092°05'0 0.0
2015-Apr-30 22:33N 46°44' W 092°05'0 0.0
2015-Apr-30 21:33N 46°44' W 092°05'0 0.0
2015-Apr-30 20:33N 46°44' W 092°05'0 0.0
2015-Apr-30 19:33N 46°44' W 092°05'0 0.0
2015-Apr-30 18:33N 46°44' W 092°05'0 0.0
2015-Apr-30 17:33N 46°44' W 092°05'0 0.0
2015-Apr-30 16:34N 46°44' W 092°05'0 0.0
2015-Apr-30 15:33N 46°44' W 092°05'0 0.0
2015-Apr-30 14:33N 46°44' W 092°05'0 0.0
2015-Apr-30 13:33N 46°44' W 092°05'0 0.0
2015-Apr-30 12:33N 46°44' W 092°05'0 0.0
2015-Apr-30 11:33N 46°44' W 092°05'0 0.0
2015-Apr-30 10:33N 46°44' W 092°05'0 0.0
2015-Apr-30 09:33N 46°44' W 092°05'0 0.0
2015-Apr-30 08:33N 46°44' W 092°05'0 0.0
2015-Apr-30 07:33N 46°44' W 092°05'0 0.0
2015-Apr-30 06:33N 46°44' W 092°05'0 0.0
2015-Apr-30 05:33N 46°44' W 092°05'0 0.0
2015-Apr-30 04:33N 46°44' W 092°05'0 0.0
2015-Apr-30 03:33N 46°44' W 092°05'0 0.0
2015-Apr-30 02:33N 46°44' W 092°05'0 0.0
2015-Apr-30 01:33N 46°44' W 092°05'0 0.0
2015-Apr-30 00:33N 46°44' W 092°05'0 0.0
2015-Apr-29 23:33N 46°44' W 092°05'0 0.0
2015-Apr-29 22:33N 46°44' W 092°05'1 0.6
2015-Apr-29 21:33N 46°45' W 092°06'5 4.9
2015-Apr-29 20:34N 46°48' W 092°01'1312.8
2015-Apr-29 19:33N 46°54' W 091°45'1512.7
2015-Apr-29 18:23N 47°02' W 091°26'11 0.6
2015-Apr-29 00:33N 46°57' W 091°41'1212.5
2015-Apr-28 23:33N 46°50' W 091°56'8 8.2
2015-Apr-28 22:33N 46°45' W 092°05'1 1.2
2015-Apr-28 21:33N 46°45' W 092°07'0 0.0
2015-Apr-28 20:33N 46°45' W 092°07'0 0.0
2015-Apr-28 19:34N 46°45' W 092°07'0 0.0
2015-Apr-28 18:34N 46°45' W 092°07'0 0.0
2015-Apr-28 17:33N 46°45' W 092°07'0 0.0
2015-Apr-28 16:32N 46°45' W 092°07'0 0.0
2015-Apr-28 15:33N 46°45' W 092°07'1 1.0
2015-Apr-28 14:33N 46°45' W 092°06'3 3.3
2015-Apr-28 13:33N 46°46' W 092°01'0 0.3
2015-Apr-28 12:33N 46°46' W 092°01'0 0.1
2015-Apr-28 11:33N 46°46' W 092°01'0 0.0
2015-Apr-28 10:33N 46°46' W 092°01'0 0.0
2015-Apr-28 09:33N 46°46' W 092°01'0 0.0
2015-Apr-28 08:33N 46°46' W 092°01'2 2.2
2015-Apr-28 07:33N 46°48' W 091°59'1312.6
2015-Apr-28 06:33N 46°53' W 091°43'1312.9
2015-Apr-28 05:33N 46°58' W 091°25'7313.1
2015-Apr-28 00:00N 47°18' W 089°42'55 1.4 280 / 31023.0 5.4 4.9
2015-Apr-26 10:06N 47°06' W 091°01'712.8
2015-Apr-26 09:33N 47°03' W 091°10'1312.8
2015-Apr-26 08:33N 46°58' W 091°28'1312.8
2015-Apr-26 07:33N 46°53' W 091°45'1312.7
2015-Apr-26 06:34N 46°48' W 092°02'5 4.2
2015-Apr-26 05:23N 46°45' W 092°07'0 0.0
2015-Apr-26 04:26N 46°45' W 092°07'0 0.0
2015-Apr-26 03:26N 46°45' W 092°07'0 0.0
2015-Apr-26 02:23N 46°45' W 092°07'0 0.0
2015-Apr-26 01:26N 46°45' W 092°07'0 0.4
2015-Apr-26 00:26N 46°45' W 092°06'1 0.8
2015-Apr-25 23:22N 46°46' W 092°06'0 0.0
2015-Apr-25 22:25N 46°46' W 092°06'2 2.4
2015-Apr-25 21:34N 46°47' W 092°04'9 9.5
2015-Apr-25 20:33N 46°51' W 091°51'1312.8
2015-Apr-25 19:33N 46°56' W 091°34'313 9.4
2015-Apr-24 10:13N 46°10' W 084°04'710.4
2015-Apr-24 09:31N 46°03' W 083°59'  
Track history (hours):
 
Tides and Currents Weather Stations Pressure Air Temp Water Temp Dewpoint Dewpoint Depression Visibility Wind Speed Wind Dir Waves Ship Positions

H. Lee White

Owner: AMERICAN STEAMSHIP COMPANY, WILLIAMSVILLE, NY. More information available from US FCC via Universal Licensing System and Coast Guard Vessel Documentation Center.

Last reported at 2015-May-04 01:07 UTC. Time now 2015-May-05 19:19 UTC.
Position N 45°53' W 083°50'.

Length 214 m; draft 6.4 m.

Type: Cargo ship. MMSI: 366938770.

Date/timePositionNaut miles runAvg speedWind from/ knotsBaromVisibWave heightAir tempDewpointWater temp
2015-May-04 01:07N 45°53' W 083°50'16 9.9
2015-May-03 23:31N 46°07' W 084°01'  
2015-May-01 18:21N 47°01' W 091°33'1012.5
2015-May-01 17:33N 46°55' W 091°44'1312.6
2015-May-01 16:33N 46°49' W 092°01'6 6.0
2015-May-01 15:33N 46°45' W 092°07'0 0.0
2015-May-01 14:33N 46°45' W 092°07'0 0.0
2015-May-01 13:33N 46°45' W 092°07'1 0.2
2015-May-01 09:03N 46°44' W 092°05'0 0.0
2015-May-01 08:34N 46°44' W 092°05'0 0.0
2015-May-01 07:33N 46°44' W 092°05'0 0.0
2015-May-01 06:33N 46°44' W 092°05'0 0.0
2015-May-01 05:33N 46°44' W 092°05'0 0.0
2015-May-01 04:33N 46°44' W 092°05'0 0.0
2015-May-01 03:32N 46°44' W 092°05'0 0.0
2015-May-01 02:33N 46°44' W 092°05'0 0.0
2015-May-01 01:33N 46°44' W 092°05'0 0.0
2015-May-01 00:33N 46°44' W 092°05'0 0.0
2015-Apr-30 23:33N 46°44' W 092°05'0 0.0
2015-Apr-30 22:33N 46°44' W 092°05'0 0.0
2015-Apr-30 21:33N 46°44' W 092°05'0 0.0
2015-Apr-30 20:33N 46°44' W 092°05'0 0.0
2015-Apr-30 19:33N 46°44' W 092°05'0 0.0
2015-Apr-30 18:33N 46°44' W 092°05'0 0.0
2015-Apr-30 17:33N 46°44' W 092°05'0 0.0
2015-Apr-30 16:34N 46°44' W 092°05'0 0.0
2015-Apr-30 15:33N 46°44' W 092°05'0 0.0
2015-Apr-30 14:33N 46°44' W 092°05'0 0.0
2015-Apr-30 13:33N 46°44' W 092°05'0 0.0
2015-Apr-30 12:33N 46°44' W 092°05'0 0.0
2015-Apr-30 11:33N 46°44' W 092°05'0 0.0
2015-Apr-30 10:33N 46°44' W 092°05'0 0.0
2015-Apr-30 09:33N 46°44' W 092°05'0 0.0
2015-Apr-30 08:33N 46°44' W 092°05'0 0.0
2015-Apr-30 07:33N 46°44' W 092°05'0 0.0
2015-Apr-30 06:33N 46°44' W 092°05'0 0.0
2015-Apr-30 05:33N 46°44' W 092°05'0 0.0
2015-Apr-30 04:33N 46°44' W 092°05'0 0.0
2015-Apr-30 03:33N 46°44' W 092°05'0 0.0
2015-Apr-30 02:33N 46°44' W 092°05'0 0.0
2015-Apr-30 01:33N 46°44' W 092°05'0 0.0
2015-Apr-30 00:33N 46°44' W 092°05'0 0.0
2015-Apr-29 23:33N 46°44' W 092°05'0 0.0
2015-Apr-29 22:33N 46°44' W 092°05'1 0.6
2015-Apr-29 21:33N 46°45' W 092°06'5 4.9
2015-Apr-29 20:34N 46°48' W 092°01'1312.8
2015-Apr-29 19:33N 46°54' W 091°45'1512.7
2015-Apr-29 18:23N 47°02' W 091°26'11 0.6
2015-Apr-29 00:33N 46°57' W 091°41'1212.5
2015-Apr-28 23:33N 46°50' W 091°56'8 8.2
2015-Apr-28 22:33N 46°45' W 092°05'1 1.2
2015-Apr-28 21:33N 46°45' W 092°07'0 0.0
2015-Apr-28 20:33N 46°45' W 092°07'0 0.0
2015-Apr-28 19:34N 46°45' W 092°07'0 0.0
2015-Apr-28 18:34N 46°45' W 092°07'0 0.0
2015-Apr-28 17:33N 46°45' W 092°07'0 0.0
2015-Apr-28 16:32N 46°45' W 092°07'0 0.0
2015-Apr-28 15:33N 46°45' W 092°07'1 1.0
2015-Apr-28 14:33N 46°45' W 092°06'3 3.3
2015-Apr-28 13:33N 46°46' W 092°01'0 0.3
2015-Apr-28 12:33N 46°46' W 092°01'0 0.1
2015-Apr-28 11:33N 46°46' W 092°01'0 0.0
2015-Apr-28 10:33N 46°46' W 092°01'0 0.0
2015-Apr-28 09:33N 46°46' W 092°01'0 0.0
2015-Apr-28 08:33N 46°46' W 092°01'2 2.2
2015-Apr-28 07:33N 46°48' W 091°59'1312.6
2015-Apr-28 06:33N 46°53' W 091°43'1312.9
2015-Apr-28 05:33N 46°58' W 091°25'7313.1
2015-Apr-28 00:00N 47°18' W 089°42'55 1.4 280 / 31023.0 5.4 4.9
2015-Apr-26 10:06N 47°06' W 091°01'712.8
2015-Apr-26 09:33N 47°03' W 091°10'1312.8
2015-Apr-26 08:33N 46°58' W 091°28'1312.8
2015-Apr-26 07:33N 46°53' W 091°45'1312.7
2015-Apr-26 06:34N 46°48' W 092°02'5 4.2
2015-Apr-26 05:23N 46°45' W 092°07'0 0.0
2015-Apr-26 04:26N 46°45' W 092°07'0 0.0
2015-Apr-26 03:26N 46°45' W 092°07'0 0.0
2015-Apr-26 02:23N 46°45' W 092°07'0 0.0
2015-Apr-26 01:26N 46°45' W 092°07'0 0.4
2015-Apr-26 00:26N 46°45' W 092°06'1 0.8
2015-Apr-25 23:22N 46°46' W 092°06'0 0.0
2015-Apr-25 22:25N 46°46' W 092°06'2 2.4
2015-Apr-25 21:34N 46°47' W 092°04'9 9.5
2015-Apr-25 20:33N 46°51' W 091°51'1312.8
2015-Apr-25 19:33N 46°56' W 091°34'313 9.4
2015-Apr-24 10:13N 46°10' W 084°04'710.4
2015-Apr-24 09:31N 46°03' W 083°59'  

Dump ship's entire track history